sensor_id;sensor_type;location;lat;lon;timestamp;P1;durP1;ratioP1;P2;durP2;ratioP2
61096;SDS011;46977;50.936;6.908;2023-09-07T00:02:49;8.07;;;5.00;;
61096;SDS011;46977;50.936;6.908;2023-09-07T00:05:51;7.57;;;4.43;;
61096;SDS011;46977;50.936;6.908;2023-09-07T00:08:54;6.78;;;4.47;;
61096;SDS011;46977;50.936;6.908;2023-09-07T00:11:59;7.25;;;4.80;;
61096;SDS011;46977;50.936;6.908;2023-09-07T00:15:02;5.45;;;4.35;;
61096;SDS011;46977;50.936;6.908;2023-09-07T00:18:05;7.90;;;4.90;;
61096;SDS011;46977;50.936;6.908;2023-09-07T00:21:09;7.03;;;4.43;;
61096;SDS011;46977;50.936;6.908;2023-09-07T00:24:11;7.90;;;5.13;;
61096;SDS011;46977;50.936;6.908;2023-09-07T00:27:14;7.45;;;5.03;;
61096;SDS011;46977;50.936;6.908;2023-09-07T00:30:17;7.32;;;5.55;;
61096;SDS011;46977;50.936;6.908;2023-09-07T00:33:20;7.70;;;4.68;;
61096;SDS011;46977;50.936;6.908;2023-09-07T00:36:22;7.15;;;4.78;;
61096;SDS011;46977;50.936;6.908;2023-09-07T00:39:24;7.63;;;5.53;;
61096;SDS011;46977;50.936;6.908;2023-09-07T00:42:28;7.35;;;5.65;;
61096;SDS011;46977;50.936;6.908;2023-09-07T00:45:30;6.93;;;5.10;;
61096;SDS011;46977;50.936;6.908;2023-09-07T00:48:33;6.03;;;4.75;;
61096;SDS011;46977;50.936;6.908;2023-09-07T00:51:35;7.82;;;4.45;;
61096;SDS011;46977;50.936;6.908;2023-09-07T00:54:37;7.55;;;5.07;;
61096;SDS011;46977;50.936;6.908;2023-09-07T00:57:43;7.57;;;5.03;;
61096;SDS011;46977;50.936;6.908;2023-09-07T01:00:45;8.20;;;4.70;;
61096;SDS011;46977;50.936;6.908;2023-09-07T01:03:49;7.57;;;5.32;;
61096;SDS011;46977;50.936;6.908;2023-09-07T01:06:52;6.72;;;4.55;;
61096;SDS011;46977;50.936;6.908;2023-09-07T01:09:59;6.13;;;4.05;;
61096;SDS011;46977;50.936;6.908;2023-09-07T01:13:04;7.00;;;4.55;;
61096;SDS011;46977;50.936;6.908;2023-09-07T01:16:06;7.60;;;4.63;;
61096;SDS011;46977;50.936;6.908;2023-09-07T01:19:09;5.68;;;3.88;;
61096;SDS011;46977;50.936;6.908;2023-09-07T01:22:15;5.88;;;4.70;;
61096;SDS011;46977;50.936;6.908;2023-09-07T01:25:19;6.57;;;4.28;;
61096;SDS011;46977;50.936;6.908;2023-09-07T01:28:21;6.07;;;3.67;;
61096;SDS011;46977;50.936;6.908;2023-09-07T01:31:24;8.07;;;4.55;;
61096;SDS011;46977;50.936;6.908;2023-09-07T01:34:26;6.53;;;4.15;;
61096;SDS011;46977;50.936;6.908;2023-09-07T01:37:30;6.68;;;4.70;;
61096;SDS011;46977;50.936;6.908;2023-09-07T01:40:33;7.05;;;4.30;;
61096;SDS011;46977;50.936;6.908;2023-09-07T01:43:37;6.25;;;4.38;;
61096;SDS011;46977;50.936;6.908;2023-09-07T01:46:39;5.80;;;4.25;;
61096;SDS011;46977;50.936;6.908;2023-09-07T01:49:41;6.55;;;4.60;;
61096;SDS011;46977;50.936;6.908;2023-09-07T01:52:47;7.20;;;5.15;;
61096;SDS011;46977;50.936;6.908;2023-09-07T01:55:53;6.25;;;4.22;;
61096;SDS011;46977;50.936;6.908;2023-09-07T01:58:56;6.53;;;4.07;;
61096;SDS011;46977;50.936;6.908;2023-09-07T02:01:59;5.85;;;4.13;;
61096;SDS011;46977;50.936;6.908;2023-09-07T02:05:03;9.00;;;4.47;;
61096;SDS011;46977;50.936;6.908;2023-09-07T02:08:07;7.50;;;4.75;;
61096;SDS011;46977;50.936;6.908;2023-09-07T02:11:10;7.00;;;4.38;;
61096;SDS011;46977;50.936;6.908;2023-09-07T02:14:13;6.03;;;4.10;;
61096;SDS011;46977;50.936;6.908;2023-09-07T02:17:15;5.13;;;4.28;;
61096;SDS011;46977;50.936;6.908;2023-09-07T02:20:20;6.20;;;4.18;;
61096;SDS011;46977;50.936;6.908;2023-09-07T02:23:24;6.65;;;4.85;;
61096;SDS011;46977;50.936;6.908;2023-09-07T02:26:26;5.38;;;4.13;;
61096;SDS011;46977;50.936;6.908;2023-09-07T02:29:28;7.25;;;4.57;;
61096;SDS011;46977;50.936;6.908;2023-09-07T02:32:31;5.43;;;4.25;;
61096;SDS011;46977;50.936;6.908;2023-09-07T02:35:36;8.68;;;4.28;;
61096;SDS011;46977;50.936;6.908;2023-09-07T02:38:40;6.15;;;4.30;;
61096;SDS011;46977;50.936;6.908;2023-09-07T02:41:43;6.28;;;4.40;;
61096;SDS011;46977;50.936;6.908;2023-09-07T02:44:47;5.60;;;4.30;;
61096;SDS011;46977;50.936;6.908;2023-09-07T02:47:50;5.90;;;4.40;;
61096;SDS011;46977;50.936;6.908;2023-09-07T02:50:54;5.68;;;4.03;;
61096;SDS011;46977;50.936;6.908;2023-09-07T02:54:02;5.90;;;4.30;;
61096;SDS011;46977;50.936;6.908;2023-09-07T02:57:06;5.75;;;3.78;;
61096;SDS011;46977;50.936;6.908;2023-09-07T03:00:09;8.15;;;4.40;;
61096;SDS011;46977;50.936;6.908;2023-09-07T03:03:13;7.78;;;4.45;;
61096;SDS011;46977;50.936;6.908;2023-09-07T03:06:16;7.43;;;4.80;;
61096;SDS011;46977;50.936;6.908;2023-09-07T03:09:23;6.72;;;4.35;;
61096;SDS011;46977;50.936;6.908;2023-09-07T03:12:26;6.05;;;4.65;;
61096;SDS011;46977;50.936;6.908;2023-09-07T03:15:29;7.88;;;4.55;;
61096;SDS011;46977;50.936;6.908;2023-09-07T03:18:33;5.85;;;4.05;;
61096;SDS011;46977;50.936;6.908;2023-09-07T03:21:36;8.32;;;5.03;;
61096;SDS011;46977;50.936;6.908;2023-09-07T03:24:40;6.18;;;4.70;;
61096;SDS011;46977;50.936;6.908;2023-09-07T03:27:42;6.10;;;4.15;;
61096;SDS011;46977;50.936;6.908;2023-09-07T03:30:47;7.55;;;4.10;;
61096;SDS011;46977;50.936;6.908;2023-09-07T03:33:49;5.82;;;4.65;;
61096;SDS011;46977;50.936;6.908;2023-09-07T03:36:52;8.85;;;4.65;;
61096;SDS011;46977;50.936;6.908;2023-09-07T03:39:56;5.53;;;4.25;;
61096;SDS011;46977;50.936;6.908;2023-09-07T03:42:59;7.90;;;4.45;;
61096;SDS011;46977;50.936;6.908;2023-09-07T03:46:02;8.40;;;4.70;;
61096;SDS011;46977;50.936;6.908;2023-09-07T03:49:05;6.30;;;3.95;;
61096;SDS011;46977;50.936;6.908;2023-09-07T03:52:09;7.65;;;4.93;;
61096;SDS011;46977;50.936;6.908;2023-09-07T03:55:13;5.43;;;4.15;;
61096;SDS011;46977;50.936;6.908;2023-09-07T03:58:15;5.95;;;4.40;;
61096;SDS011;46977;50.936;6.908;2023-09-07T04:01:19;5.65;;;4.25;;
61096;SDS011;46977;50.936;6.908;2023-09-07T04:04:21;6.07;;;4.47;;
61096;SDS011;46977;50.936;6.908;2023-09-07T04:07:23;6.82;;;5.32;;
61096;SDS011;46977;50.936;6.908;2023-09-07T04:10:27;7.90;;;4.40;;
61096;SDS011;46977;50.936;6.908;2023-09-07T04:13:30;5.78;;;4.00;;
61096;SDS011;46977;50.936;6.908;2023-09-07T04:16:32;5.07;;;4.07;;
61096;SDS011;46977;50.936;6.908;2023-09-07T04:19:34;6.88;;;4.70;;
61096;SDS011;46977;50.936;6.908;2023-09-07T04:22:38;5.13;;;4.38;;
61096;SDS011;46977;50.936;6.908;2023-09-07T04:25:41;7.47;;;4.80;;
61096;SDS011;46977;50.936;6.908;2023-09-07T04:28:45;6.60;;;4.68;;
61096;SDS011;46977;50.936;6.908;2023-09-07T04:31:48;7.18;;;4.75;;
61096;SDS011;46977;50.936;6.908;2023-09-07T04:34:52;7.30;;;4.38;;
61096;SDS011;46977;50.936;6.908;2023-09-07T04:37:56;13.27;;;4.63;;
61096;SDS011;46977;50.936;6.908;2023-09-07T04:41:06;7.95;;;4.90;;
61096;SDS011;46977;50.936;6.908;2023-09-07T04:44:09;6.57;;;4.78;;
61096;SDS011;46977;50.936;6.908;2023-09-07T04:47:11;7.75;;;4.88;;
61096;SDS011;46977;50.936;6.908;2023-09-07T04:50:17;4.88;;;3.80;;
61096;SDS011;46977;50.936;6.908;2023-09-07T04:53:19;10.05;;;5.05;;
61096;SDS011;46977;50.936;6.908;2023-09-07T04:56:23;10.80;;;4.40;;
61096;SDS011;46977;50.936;6.908;2023-09-07T04:59:28;9.38;;;4.68;;
61096;SDS011;46977;50.936;6.908;2023-09-07T05:02:32;7.72;;;4.70;;
61096;SDS011;46977;50.936;6.908;2023-09-07T05:05:34;6.95;;;4.25;;
61096;SDS011;46977;50.936;6.908;2023-09-07T05:08:36;6.22;;;4.22;;
61096;SDS011;46977;50.936;6.908;2023-09-07T05:11:40;7.82;;;4.93;;
61096;SDS011;46977;50.936;6.908;2023-09-07T05:14:43;7.00;;;4.45;;
61096;SDS011;46977;50.936;6.908;2023-09-07T05:17:45;8.63;;;5.05;;
61096;SDS011;46977;50.936;6.908;2023-09-07T05:20:47;8.70;;;4.70;;
61096;SDS011;46977;50.936;6.908;2023-09-07T05:23:53;5.68;;;3.95;;
61096;SDS011;46977;50.936;6.908;2023-09-07T05:26:57;7.00;;;4.50;;
61096;SDS011;46977;50.936;6.908;2023-09-07T05:29:59;6.70;;;4.82;;
61096;SDS011;46977;50.936;6.908;2023-09-07T05:33:02;6.63;;;4.15;;
61096;SDS011;46977;50.936;6.908;2023-09-07T05:36:05;8.25;;;4.22;;
61096;SDS011;46977;50.936;6.908;2023-09-07T05:39:07;6.72;;;4.47;;
61096;SDS011;46977;50.936;6.908;2023-09-07T05:42:12;5.43;;;3.90;;
61096;SDS011;46977;50.936;6.908;2023-09-07T05:45:15;8.13;;;4.22;;
61096;SDS011;46977;50.936;6.908;2023-09-07T05:48:17;7.20;;;4.03;;
61096;SDS011;46977;50.936;6.908;2023-09-07T05:51:21;7.28;;;3.60;;
61096;SDS011;46977;50.936;6.908;2023-09-07T05:54:27;6.97;;;3.40;;
61096;SDS011;46977;50.936;6.908;2023-09-07T05:57:31;5.35;;;3.72;;
61096;SDS011;46977;50.936;6.908;2023-09-07T06:00:34;7.00;;;4.43;;
61096;SDS011;46977;50.936;6.908;2023-09-07T06:03:37;8.48;;;4.05;;
61096;SDS011;46977;50.936;6.908;2023-09-07T06:06:42;6.45;;;4.85;;
61096;SDS011;46977;50.936;6.908;2023-09-07T06:09:47;11.15;;;4.75;;
61096;SDS011;46977;50.936;6.908;2023-09-07T06:12:51;6.25;;;4.00;;
61096;SDS011;46977;50.936;6.908;2023-09-07T06:15:54;6.90;;;3.83;;
61096;SDS011;46977;50.936;6.908;2023-09-07T06:18:56;8.70;;;3.58;;
61096;SDS011;46977;50.936;6.908;2023-09-07T06:21:59;10.65;;;3.50;;
61096;SDS011;46977;50.936;6.908;2023-09-07T06:25:01;6.93;;;3.50;;
61096;SDS011;46977;50.936;6.908;2023-09-07T06:28:06;6.47;;;3.88;;
61096;SDS011;46977;50.936;6.908;2023-09-07T06:31:08;5.57;;;3.70;;
61096;SDS011;46977;50.936;6.908;2023-09-07T06:34:11;7.32;;;3.88;;
61096;SDS011;46977;50.936;6.908;2023-09-07T06:37:14;12.82;;;3.83;;
61096;SDS011;46977;50.936;6.908;2023-09-07T06:40:17;6.32;;;3.38;;
61096;SDS011;46977;50.936;6.908;2023-09-07T06:43:25;4.97;;;3.55;;
61096;SDS011;46977;50.936;6.908;2023-09-07T06:46:31;7.25;;;2.95;;
61096;SDS011;46977;50.936;6.908;2023-09-07T06:49:33;9.30;;;3.92;;
61096;SDS011;46977;50.936;6.908;2023-09-07T06:52:37;5.82;;;3.53;;
61096;SDS011;46977;50.936;6.908;2023-09-07T06:55:40;3.95;;;3.30;;
61096;SDS011;46977;50.936;6.908;2023-09-07T06:58:43;5.85;;;3.30;;
61096;SDS011;46977;50.936;6.908;2023-09-07T07:01:46;9.43;;;3.53;;
61096;SDS011;46977;50.936;6.908;2023-09-07T07:04:48;5.50;;;2.97;;
61096;SDS011;46977;50.936;6.908;2023-09-07T07:07:51;7.97;;;3.42;;
61096;SDS011;46977;50.936;6.908;2023-09-07T07:10:54;6.35;;;3.45;;
61096;SDS011;46977;50.936;6.908;2023-09-07T07:13:58;6.00;;;3.35;;
61096;SDS011;46977;50.936;6.908;2023-09-07T07:17:01;5.43;;;3.83;;
61096;SDS011;46977;50.936;6.908;2023-09-07T07:20:08;6.05;;;3.58;;
61096;SDS011;46977;50.936;6.908;2023-09-07T07:23:11;6.70;;;3.47;;
61096;SDS011;46977;50.936;6.908;2023-09-07T07:26:17;6.00;;;3.28;;
61096;SDS011;46977;50.936;6.908;2023-09-07T07:29:21;6.38;;;3.17;;
61096;SDS011;46977;50.936;6.908;2023-09-07T07:32:24;7.07;;;3.05;;
61096;SDS011;46977;50.936;6.908;2023-09-07T07:35:27;5.68;;;3.30;;
61096;SDS011;46977;50.936;6.908;2023-09-07T07:38:30;7.30;;;3.33;;
61096;SDS011;46977;50.936;6.908;2023-09-07T07:41:32;4.47;;;3.47;;
61096;SDS011;46977;50.936;6.908;2023-09-07T07:44:36;8.00;;;4.03;;
61096;SDS011;46977;50.936;6.908;2023-09-07T07:47:39;7.05;;;3.10;;
61096;SDS011;46977;50.936;6.908;2023-09-07T07:50:42;4.32;;;3.28;;
61096;SDS011;46977;50.936;6.908;2023-09-07T07:53:47;3.58;;;3.03;;
61096;SDS011;46977;50.936;6.908;2023-09-07T07:56:51;4.00;;;3.20;;
61096;SDS011;46977;50.936;6.908;2023-09-07T07:59:55;4.38;;;3.20;;
61096;SDS011;46977;50.936;6.908;2023-09-07T08:02:58;6.43;;;3.38;;
61096;SDS011;46977;50.936;6.908;2023-09-07T08:06:01;7.68;;;3.65;;
61096;SDS011;46977;50.936;6.908;2023-09-07T08:09:04;4.85;;;3.22;;
61096;SDS011;46977;50.936;6.908;2023-09-07T08:12:06;7.32;;;3.38;;
61096;SDS011;46977;50.936;6.908;2023-09-07T08:15:12;10.85;;;3.78;;
61096;SDS011;46977;50.936;6.908;2023-09-07T08:18:15;3.88;;;3.50;;
61096;SDS011;46977;50.936;6.908;2023-09-07T08:21:17;6.10;;;3.30;;
61096;SDS011;46977;50.936;6.908;2023-09-07T08:24:20;4.82;;;3.92;;
61096;SDS011;46977;50.936;6.908;2023-09-07T08:27:22;5.65;;;3.40;;
61096;SDS011;46977;50.936;6.908;2023-09-07T08:30:30;4.97;;;3.65;;
61096;SDS011;46977;50.936;6.908;2023-09-07T08:33:33;7.60;;;4.30;;
61096;SDS011;46977;50.936;6.908;2023-09-07T08:36:42;5.95;;;3.85;;
61096;SDS011;46977;50.936;6.908;2023-09-07T08:39:44;8.50;;;4.10;;
61096;SDS011;46977;50.936;6.908;2023-09-07T08:42:48;6.95;;;4.13;;
61096;SDS011;46977;50.936;6.908;2023-09-07T08:45:56;8.35;;;4.22;;
61096;SDS011;46977;50.936;6.908;2023-09-07T08:49:04;5.88;;;3.85;;
61096;SDS011;46977;50.936;6.908;2023-09-07T08:52:07;11.50;;;4.10;;
61096;SDS011;46977;50.936;6.908;2023-09-07T08:55:11;4.82;;;3.58;;
61096;SDS011;46977;50.936;6.908;2023-09-07T08:58:14;9.73;;;4.25;;
61096;SDS011;46977;50.936;6.908;2023-09-07T09:01:18;6.90;;;4.40;;
61096;SDS011;46977;50.936;6.908;2023-09-07T09:04:23;5.35;;;4.00;;
61096;SDS011;46977;50.936;6.908;2023-09-07T09:07:26;7.88;;;4.63;;
61096;SDS011;46977;50.936;6.908;2023-09-07T09:10:28;8.77;;;4.65;;
61096;SDS011;46977;50.936;6.908;2023-09-07T09:13:31;5.28;;;4.78;;
61096;SDS011;46977;50.936;6.908;2023-09-07T09:16:37;8.48;;;4.82;;
61096;SDS011;46977;50.936;6.908;2023-09-07T09:19:40;6.65;;;4.28;;
61096;SDS011;46977;50.936;6.908;2023-09-07T09:22:44;7.00;;;4.50;;
61096;SDS011;46977;50.936;6.908;2023-09-07T09:25:47;9.98;;;4.28;;
61096;SDS011;46977;50.936;6.908;2023-09-07T09:28:50;8.00;;;4.65;;
61096;SDS011;46977;50.936;6.908;2023-09-07T09:31:57;6.40;;;4.53;;
61096;SDS011;46977;50.936;6.908;2023-09-07T09:34:59;7.47;;;4.32;;
61096;SDS011;46977;50.936;6.908;2023-09-07T09:38:07;5.85;;;4.88;;
61096;SDS011;46977;50.936;6.908;2023-09-07T09:41:09;5.78;;;4.20;;
61096;SDS011;46977;50.936;6.908;2023-09-07T09:44:12;6.88;;;4.80;;
61096;SDS011;46977;50.936;6.908;2023-09-07T09:47:16;6.60;;;4.38;;
61096;SDS011;46977;50.936;6.908;2023-09-07T09:50:20;6.65;;;4.72;;
61096;SDS011;46977;50.936;6.908;2023-09-07T09:53:23;6.10;;;4.78;;
61096;SDS011;46977;50.936;6.908;2023-09-07T09:56:25;6.22;;;5.00;;
61096;SDS011;46977;50.936;6.908;2023-09-07T09:59:28;5.88;;;4.22;;
61096;SDS011;46977;50.936;6.908;2023-09-07T10:02:32;4.85;;;4.35;;
61096;SDS011;46977;50.936;6.908;2023-09-07T10:05:38;8.10;;;5.57;;
61096;SDS011;46977;50.936;6.908;2023-09-07T10:08:40;5.45;;;4.78;;
61096;SDS011;46977;50.936;6.908;2023-09-07T10:11:57;7.75;;;5.30;;
61096;SDS011;46977;50.936;6.908;2023-09-07T10:14:59;6.28;;;5.07;;
61096;SDS011;46977;50.936;6.908;2023-09-07T10:18:04;5.63;;;4.78;;
61096;SDS011;46977;50.936;6.908;2023-09-07T10:21:11;6.60;;;4.75;;
61096;SDS011;46977;50.936;6.908;2023-09-07T10:24:23;6.53;;;4.53;;
61096;SDS011;46977;50.936;6.908;2023-09-07T10:27:35;7.07;;;4.90;;
61096;SDS011;46977;50.936;6.908;2023-09-07T10:30:38;9.40;;;4.78;;
61096;SDS011;46977;50.936;6.908;2023-09-07T10:33:45;6.97;;;4.43;;
61096;SDS011;46977;50.936;6.908;2023-09-07T10:36:49;8.80;;;4.53;;
61096;SDS011;46977;50.936;6.908;2023-09-07T10:39:58;6.22;;;4.45;;
61096;SDS011;46977;50.936;6.908;2023-09-07T10:43:01;8.18;;;5.07;;
61096;SDS011;46977;50.936;6.908;2023-09-07T10:46:07;8.30;;;4.95;;
61096;SDS011;46977;50.936;6.908;2023-09-07T10:49:11;6.05;;;4.20;;
61096;SDS011;46977;50.936;6.908;2023-09-07T10:52:14;7.90;;;4.70;;
61096;SDS011;46977;50.936;6.908;2023-09-07T10:55:16;6.68;;;4.72;;
61096;SDS011;46977;50.936;6.908;2023-09-07T10:58:24;7.35;;;4.82;;
61096;SDS011;46977;50.936;6.908;2023-09-07T11:01:31;7.10;;;4.53;;
61096;SDS011;46977;50.936;6.908;2023-09-07T11:04:35;9.82;;;4.65;;
61096;SDS011;46977;50.936;6.908;2023-09-07T11:07:38;6.38;;;4.85;;
61096;SDS011;46977;50.936;6.908;2023-09-07T11:10:42;6.70;;;5.07;;
61096;SDS011;46977;50.936;6.908;2023-09-07T11:13:45;6.57;;;4.43;;
61096;SDS011;46977;50.936;6.908;2023-09-07T11:16:48;5.20;;;4.68;;
61096;SDS011;46977;50.936;6.908;2023-09-07T11:19:53;6.03;;;4.75;;
61096;SDS011;46977;50.936;6.908;2023-09-07T11:22:56;6.25;;;4.68;;
61096;SDS011;46977;50.936;6.908;2023-09-07T11:26:07;6.38;;;4.72;;
61096;SDS011;46977;50.936;6.908;2023-09-07T11:29:09;5.65;;;4.30;;
61096;SDS011;46977;50.936;6.908;2023-09-07T11:32:15;5.88;;;5.00;;
61096;SDS011;46977;50.936;6.908;2023-09-07T11:35:25;6.72;;;4.72;;
61096;SDS011;46977;50.936;6.908;2023-09-07T11:38:28;6.20;;;4.35;;
61096;SDS011;46977;50.936;6.908;2023-09-07T11:41:31;7.47;;;5.20;;
61096;SDS011;46977;50.936;6.908;2023-09-07T11:44:33;7.18;;;4.28;;
61096;SDS011;46977;50.936;6.908;2023-09-07T11:47:38;12.50;;;5.00;;
61096;SDS011;46977;50.936;6.908;2023-09-07T11:50:41;6.93;;;4.60;;
61096;SDS011;46977;50.936;6.908;2023-09-07T11:53:44;7.38;;;4.50;;
61096;SDS011;46977;50.936;6.908;2023-09-07T11:56:47;6.70;;;4.55;;
61096;SDS011;46977;50.936;6.908;2023-09-07T11:59:49;6.15;;;4.97;;
61096;SDS011;46977;50.936;6.908;2023-09-07T12:03:03;4.95;;;4.30;;
61096;SDS011;46977;50.936;6.908;2023-09-07T12:06:07;7.85;;;5.20;;
61096;SDS011;46977;50.936;6.908;2023-09-07T12:09:09;5.97;;;4.40;;
61096;SDS011;46977;50.936;6.908;2023-09-07T12:12:11;5.50;;;4.95;;
61096;SDS011;46977;50.936;6.908;2023-09-07T12:15:14;7.93;;;4.82;;
61096;SDS011;46977;50.936;6.908;2023-09-07T12:18:16;4.72;;;4.28;;
61096;SDS011;46977;50.936;6.908;2023-09-07T12:21:22;5.20;;;4.60;;
61096;SDS011;46977;50.936;6.908;2023-09-07T12:24:27;4.70;;;4.30;;
61096;SDS011;46977;50.936;6.908;2023-09-07T12:27:30;6.25;;;5.15;;
61096;SDS011;46977;50.936;6.908;2023-09-07T12:30:53;8.77;;;5.15;;
61096;SDS011;46977;50.936;6.908;2023-09-07T12:33:55;7.28;;;4.85;;
61096;SDS011;46977;50.936;6.908;2023-09-07T12:36:59;8.63;;;5.80;;
61096;SDS011;46977;50.936;6.908;2023-09-07T12:40:01;5.95;;;4.53;;
61096;SDS011;46977;50.936;6.908;2023-09-07T12:43:07;5.43;;;4.93;;
61096;SDS011;46977;50.936;6.908;2023-09-07T12:46:09;7.68;;;4.70;;
61096;SDS011;46977;50.936;6.908;2023-09-07T12:49:12;6.43;;;4.45;;
61096;SDS011;46977;50.936;6.908;2023-09-07T12:52:18;6.35;;;4.75;;
61096;SDS011;46977;50.936;6.908;2023-09-07T12:55:20;5.28;;;4.78;;
61096;SDS011;46977;50.936;6.908;2023-09-07T12:58:23;6.47;;;4.55;;
61096;SDS011;46977;50.936;6.908;2023-09-07T13:01:26;6.78;;;4.65;;
61096;SDS011;46977;50.936;6.908;2023-09-07T13:04:30;6.05;;;4.80;;
61096;SDS011;46977;50.936;6.908;2023-09-07T13:07:34;4.72;;;4.32;;
61096;SDS011;46977;50.936;6.908;2023-09-07T13:10:37;5.93;;;4.30;;
61096;SDS011;46977;50.936;6.908;2023-09-07T13:13:39;5.10;;;4.60;;
61096;SDS011;46977;50.936;6.908;2023-09-07T13:16:41;5.55;;;5.03;;
61096;SDS011;46977;50.936;6.908;2023-09-07T13:19:44;5.32;;;4.82;;
61096;SDS011;46977;50.936;6.908;2023-09-07T13:22:49;5.40;;;4.82;;
61096;SDS011;46977;50.936;6.908;2023-09-07T13:25:51;7.35;;;4.85;;
61096;SDS011;46977;50.936;6.908;2023-09-07T13:28:53;11.07;;;5.22;;
61096;SDS011;46977;50.936;6.908;2023-09-07T13:31:56;6.72;;;5.18;;
61096;SDS011;46977;50.936;6.908;2023-09-07T13:35:00;5.82;;;4.72;;
61096;SDS011;46977;50.936;6.908;2023-09-07T13:38:03;5.10;;;4.60;;
61096;SDS011;46977;50.936;6.908;2023-09-07T13:41:06;6.93;;;4.40;;
61096;SDS011;46977;50.936;6.908;2023-09-07T13:44:09;5.38;;;4.05;;
61096;SDS011;46977;50.936;6.908;2023-09-07T13:47:11;5.38;;;4.60;;
61096;SDS011;46977;50.936;6.908;2023-09-07T13:50:13;7.97;;;4.88;;
61096;SDS011;46977;50.936;6.908;2023-09-07T13:53:17;5.40;;;3.85;;
61096;SDS011;46977;50.936;6.908;2023-09-07T13:56:20;6.53;;;4.22;;
61096;SDS011;46977;50.936;6.908;2023-09-07T13:59:23;6.30;;;4.55;;
61096;SDS011;46977;50.936;6.908;2023-09-07T14:02:30;5.97;;;4.40;;
61096;SDS011;46977;50.936;6.908;2023-09-07T14:05:34;7.18;;;4.20;;
61096;SDS011;46977;50.936;6.908;2023-09-07T14:08:38;4.82;;;3.88;;
61096;SDS011;46977;50.936;6.908;2023-09-07T14:11:40;4.43;;;4.03;;
61096;SDS011;46977;50.936;6.908;2023-09-07T14:14:42;7.40;;;3.88;;
61096;SDS011;46977;50.936;6.908;2023-09-07T14:17:45;6.25;;;3.85;;
61096;SDS011;46977;50.936;6.908;2023-09-07T14:20:47;6.55;;;4.03;;
61096;SDS011;46977;50.936;6.908;2023-09-07T14:23:53;5.38;;;3.47;;
61096;SDS011;46977;50.936;6.908;2023-09-07T14:26:55;4.55;;;2.90;;
61096;SDS011;46977;50.936;6.908;2023-09-07T14:29:58;5.80;;;3.72;;
61096;SDS011;46977;50.936;6.908;2023-09-07T14:33:00;5.80;;;3.85;;
61096;SDS011;46977;50.936;6.908;2023-09-07T14:36:04;8.27;;;3.90;;
61096;SDS011;46977;50.936;6.908;2023-09-07T14:39:08;5.15;;;3.70;;
61096;SDS011;46977;50.936;6.908;2023-09-07T14:42:11;5.43;;;4.03;;
61096;SDS011;46977;50.936;6.908;2023-09-07T14:45:16;5.30;;;3.50;;
61096;SDS011;46977;50.936;6.908;2023-09-07T14:48:18;5.85;;;4.18;;
61096;SDS011;46977;50.936;6.908;2023-09-07T14:51:21;8.30;;;4.30;;
61096;SDS011;46977;50.936;6.908;2023-09-07T14:54:24;7.13;;;4.10;;
61096;SDS011;46977;50.936;6.908;2023-09-07T14:57:27;5.40;;;3.90;;
61096;SDS011;46977;50.936;6.908;2023-09-07T15:00:30;5.60;;;3.97;;
61096;SDS011;46977;50.936;6.908;2023-09-07T15:03:34;10.82;;;4.38;;
61096;SDS011;46977;50.936;6.908;2023-09-07T15:06:41;5.75;;;3.55;;
61096;SDS011;46977;50.936;6.908;2023-09-07T15:09:45;5.53;;;4.30;;
61096;SDS011;46977;50.936;6.908;2023-09-07T15:12:47;5.10;;;3.58;;
61096;SDS011;46977;50.936;6.908;2023-09-07T15:15:50;6.50;;;3.63;;
61096;SDS011;46977;50.936;6.908;2023-09-07T15:18:52;4.75;;;3.95;;
61096;SDS011;46977;50.936;6.908;2023-09-07T15:21:54;4.78;;;3.88;;
61096;SDS011;46977;50.936;6.908;2023-09-07T15:24:58;7.18;;;3.92;;
61096;SDS011;46977;50.936;6.908;2023-09-07T15:28:02;6.45;;;3.70;;
61096;SDS011;46977;50.936;6.908;2023-09-07T15:31:04;6.47;;;4.30;;
61096;SDS011;46977;50.936;6.908;2023-09-07T15:34:07;7.50;;;4.63;;
61096;SDS011;46977;50.936;6.908;2023-09-07T15:37:09;7.85;;;4.03;;
61096;SDS011;46977;50.936;6.908;2023-09-07T15:40:13;7.13;;;4.30;;
61096;SDS011;46977;50.936;6.908;2023-09-07T15:43:17;8.75;;;3.63;;
61096;SDS011;46977;50.936;6.908;2023-09-07T15:46:19;4.00;;;3.22;;
61096;SDS011;46977;50.936;6.908;2023-09-07T15:49:22;7.55;;;3.53;;
61096;SDS011;46977;50.936;6.908;2023-09-07T15:52:30;4.68;;;3.53;;
61096;SDS011;46977;50.936;6.908;2023-09-07T15:55:37;5.93;;;3.47;;
61096;SDS011;46977;50.936;6.908;2023-09-07T16:03:46;8.10;;;3.78;;
61096;SDS011;46977;50.936;6.908;2023-09-07T16:07:12;6.75;;;4.07;;
61096;SDS011;46977;50.936;6.908;2023-09-07T16:10:24;10.65;;;4.65;;
61096;SDS011;46977;50.936;6.908;2023-09-07T16:14:36;4.60;;;3.80;;
61096;SDS011;46977;50.936;6.908;2023-09-07T16:17:39;5.07;;;3.15;;
61096;SDS011;46977;50.936;6.908;2023-09-07T16:20:59;6.47;;;3.58;;
61096;SDS011;46977;50.936;6.908;2023-09-07T16:25:36;6.45;;;3.42;;
61096;SDS011;46977;50.936;6.908;2023-09-07T16:28:51;4.57;;;3.35;;
61096;SDS011;46977;50.936;6.908;2023-09-07T16:32:35;11.07;;;3.72;;
61096;SDS011;46977;50.936;6.908;2023-09-07T16:35:39;5.07;;;3.55;;
61096;SDS011;46977;50.936;6.908;2023-09-07T16:38:41;8.57;;;4.00;;
61096;SDS011;46977;50.936;6.908;2023-09-07T16:41:44;10.30;;;5.22;;
61096;SDS011;46977;50.936;6.908;2023-09-07T16:44:49;4.50;;;3.35;;
61096;SDS011;46977;50.936;6.908;2023-09-07T16:47:54;5.10;;;3.92;;
61096;SDS011;46977;50.936;6.908;2023-09-07T16:51:03;5.10;;;3.85;;
61096;SDS011;46977;50.936;6.908;2023-09-07T16:54:06;6.80;;;4.20;;
61096;SDS011;46977;50.936;6.908;2023-09-07T16:57:09;8.93;;;4.40;;
61096;SDS011;46977;50.936;6.908;2023-09-07T17:00:12;6.40;;;3.70;;
61096;SDS011;46977;50.936;6.908;2023-09-07T17:03:16;6.38;;;3.58;;
61096;SDS011;46977;50.936;6.908;2023-09-07T17:06:19;5.30;;;3.90;;
61096;SDS011;46977;50.936;6.908;2023-09-07T17:09:21;7.15;;;4.20;;
61096;SDS011;46977;50.936;6.908;2023-09-07T17:12:23;11.07;;;4.45;;
61096;SDS011;46977;50.936;6.908;2023-09-07T17:15:26;6.18;;;4.10;;
61096;SDS011;46977;50.936;6.908;2023-09-07T17:18:30;10.18;;;4.75;;
61096;SDS011;46977;50.936;6.908;2023-09-07T17:21:33;7.95;;;4.40;;
61096;SDS011;46977;50.936;6.908;2023-09-07T17:24:36;13.20;;;9.70;;
61096;SDS011;46977;50.936;6.908;2023-09-07T17:27:38;8.23;;;5.15;;
61096;SDS011;46977;50.936;6.908;2023-09-07T17:30:41;9.90;;;5.05;;
61096;SDS011;46977;50.936;6.908;2023-09-07T17:33:46;7.20;;;4.13;;
61096;SDS011;46977;50.936;6.908;2023-09-07T17:36:48;7.00;;;4.40;;
61096;SDS011;46977;50.936;6.908;2023-09-07T17:39:51;8.38;;;4.00;;
61096;SDS011;46977;50.936;6.908;2023-09-07T17:42:55;10.55;;;4.05;;
61096;SDS011;46977;50.936;6.908;2023-09-07T17:45:57;9.70;;;4.07;;
61096;SDS011;46977;50.936;6.908;2023-09-07T17:49:04;5.80;;;4.28;;
61096;SDS011;46977;50.936;6.908;2023-09-07T17:52:06;7.80;;;4.22;;
61096;SDS011;46977;50.936;6.908;2023-09-07T17:55:08;6.68;;;4.18;;
61096;SDS011;46977;50.936;6.908;2023-09-07T17:58:11;10.18;;;5.32;;
61096;SDS011;46977;50.936;6.908;2023-09-07T18:01:14;12.40;;;5.00;;
61096;SDS011;46977;50.936;6.908;2023-09-07T18:04:20;7.38;;;4.72;;
61096;SDS011;46977;50.936;6.908;2023-09-07T18:07:22;11.73;;;5.32;;
61096;SDS011;46977;50.936;6.908;2023-09-07T18:10:25;9.80;;;5.22;;
61096;SDS011;46977;50.936;6.908;2023-09-07T18:13:27;8.57;;;5.80;;
61096;SDS011;46977;50.936;6.908;2023-09-07T18:16:29;10.35;;;6.07;;
61096;SDS011;46977;50.936;6.908;2023-09-07T18:19:37;9.57;;;5.53;;
61096;SDS011;46977;50.936;6.908;2023-09-07T18:22:39;10.50;;;6.32;;
61096;SDS011;46977;50.936;6.908;2023-09-07T18:25:43;8.05;;;5.40;;
61096;SDS011;46977;50.936;6.908;2023-09-07T18:28:46;12.77;;;6.13;;
61096;SDS011;46977;50.936;6.908;2023-09-07T18:31:48;16.27;;;9.35;;
61096;SDS011;46977;50.936;6.908;2023-09-07T18:34:52;14.13;;;8.10;;